»·PEaware :: ASA1971 KSAN-KSFO

ASA1971 :: KSAN-KSFO

FLIGHT INFORMATION

Flight Status: Arrived
Operator:
Alaska Airlines
More flights by this operator :: More flights under this callsign
Pilot: Kaaron G. (14193)
Aircraft: AIRBUS A320
(A320)
More flights by this aircraft type
Origin: KSAN San Diego Intl-Lindbergh
United States
Destination: KSFO San Francisco Intl
United States
More flights between these airports :: More routes between these airports
Route: PADRZ2 IKAYE RIZIN SPLNT STOKD SERFR SERFR3
File this flight plan on PilotEdge
Remarks:
Altitude:
(Current/Filed)
36,000ft
Speed:
(Current/Filed)
455kts
Departed: 26-Jul-18 09:21 PM
Arrived: 26-Jul-18 10:23 PM
Distance/Time
Traveled:
388nm/1:02
Distance/Time
To Go:
Arrived

Flight Plot

Page will automatically refresh every two minutes.

Flight plan parsing failed; only flown route is shown


Map Options




Map Legend


Flown Route
Filed Route
Departure Airport
Arrival Airport
Navaid (VOR, NDB)
Fix

Horizontal Profiles

Position Reports

Time Latitude Longitude Heading Altitude Ground
Speed
26-Jul-18 20:28 32.732470 -117.201620 110 29ft 0kts
26-Jul-18 20:29 32.732470 -117.201620 110 29ft 0kts
26-Jul-18 20:30 32.732470 -117.201620 110 29ft 0kts
26-Jul-18 20:31 32.732470 -117.201620 110 29ft 0kts
26-Jul-18 20:32 32.732470 -117.201620 110 29ft 0kts
26-Jul-18 20:33 32.732470 -117.201620 110 29ft 0kts
26-Jul-18 20:34 32.732470 -117.201620 110 29ft 0kts
26-Jul-18 20:35 32.732470 -117.201620 110 29ft 0kts
26-Jul-18 20:36 32.732470 -117.201620 110 29ft 0kts
26-Jul-18 20:37 32.732470 -117.201620 110 29ft 0kts
26-Jul-18 20:38 32.732470 -117.201620 110 29ft 0kts
26-Jul-18 20:39 32.732470 -117.201620 110 29ft 0kts
26-Jul-18 20:40 32.732470 -117.201620 110 29ft 0kts
26-Jul-18 20:41 32.732470 -117.201620 110 29ft 0kts
26-Jul-18 20:42 32.732470 -117.201620 110 29ft 0kts
26-Jul-18 20:43 32.732470 -117.201620 110 29ft 0kts
26-Jul-18 20:44 32.732470 -117.201620 110 29ft 0kts
26-Jul-18 20:45 32.732470 -117.201620 110 29ft 0kts
26-Jul-18 20:46 32.732470 -117.201620 110 29ft 0kts
26-Jul-18 20:47 32.732470 -117.201620 110 29ft 0kts
26-Jul-18 20:48 32.732470 -117.201620 110 29ft 0kts
26-Jul-18 20:49 32.732470 -117.201620 110 29ft 0kts
26-Jul-18 20:50 32.732470 -117.201620 110 29ft 0kts
26-Jul-18 20:51 32.732470 -117.201620 110 29ft 0kts
26-Jul-18 20:52 32.732470 -117.201620 110 29ft 0kts
26-Jul-18 20:53 32.732470 -117.201620 110 29ft 0kts
26-Jul-18 20:54 32.732470 -117.201620 110 29ft 0kts
26-Jul-18 20:55 32.732560 -117.202040 83 29ft 2kts
26-Jul-18 20:56 32.732302 -117.202267 2 29ft 0kts
26-Jul-18 20:57 32.732302 -117.202267 2 29ft 0kts
26-Jul-18 20:58 32.732303 -117.202267 2 29ft 0kts
26-Jul-18 20:59 32.732303 -117.202267 2 29ft 0kts
26-Jul-18 21:00 32.732303 -117.202267 2 29ft 0kts
26-Jul-18 21:01 32.732362 -117.202265 1 29ft 3kts
26-Jul-18 21:02 32.733849 -117.202796 7 29ft 6kts
26-Jul-18 21:03 32.734393 -117.202626 15 29ft 0kts
26-Jul-18 21:04 32.734393 -117.202626 15 29ft 0kts
26-Jul-18 21:05 32.734393 -117.202626 15 29ft 0kts
26-Jul-18 21:06 32.734393 -117.202626 15 29ft 0kts
26-Jul-18 21:07 32.734394 -117.202625 15 29ft 0kts
26-Jul-18 21:08 32.734394 -117.202625 15 29ft 0kts
26-Jul-18 21:09 32.735152 -117.202369 15 29ft 7kts
26-Jul-18 21:10 32.735148 -117.200535 105 29ft 7kts
26-Jul-18 21:11 32.734282 -117.196989 106 29ft 17kts
26-Jul-18 21:12 32.733149 -117.192275 106 29ft 10kts
26-Jul-18 21:13 32.731980 -117.187496 106 29ft 20kts
26-Jul-18 21:14 32.730372 -117.180807 105 29ft 17kts
26-Jul-18 21:15 32.729804 -117.178459 106 29ft 0kts
26-Jul-18 21:16 32.729804 -117.178458 106 29ft 0kts
26-Jul-18 21:17 32.729730 -117.178152 105 29ft 5kts
26-Jul-18 21:18 32.729561 -117.177438 104 29ft 0kts
26-Jul-18 21:19 32.729521 -117.177256 104 29ft 4kts
26-Jul-18 21:20 32.729548 -117.176667 71 29ft 5kts
26-Jul-18 21:21 32.730321 -117.176195 286 29ft 25kts
26-Jul-18 21:22 32.741928 -117.218619 300 1341ft 168kts
26-Jul-18 21:23 32.768839 -117.264393 303 3282ft 182kts
26-Jul-18 21:24 32.802568 -117.323290 305 4379ft 251kts
26-Jul-18 21:25 32.848780 -117.394600 306 6555ft 279kts
26-Jul-18 21:26 32.897052 -117.469597 306 8782ft 292kts
26-Jul-18 21:27 32.947638 -117.548345 306 10592ft 315kts
26-Jul-18 21:28 33.005473 -117.638506 306 11454ft 369kts
26-Jul-18 21:29 33.069913 -117.735898 316 13519ft 378kts
26-Jul-18 21:30 33.151396 -117.818352 319 15433ft 389kts
26-Jul-18 21:31 33.229755 -117.909557 310 17228ft 397kts
26-Jul-18 21:32 33.303703 -118.009610 310 18879ft 407kts
26-Jul-18 21:33 33.379768 -118.112031 310 20382ft 416kts
26-Jul-18 21:34 33.457532 -118.217233 310 21780ft 425kts
26-Jul-18 21:35 33.536612 -118.324450 310 23078ft 433kts
26-Jul-18 21:36 33.617185 -118.434092 310 24273ft 442kts
26-Jul-18 21:37 33.698994 -118.545604 309 25423ft 449kts
26-Jul-18 21:38 33.781873 -118.659198 309 26503ft 455kts
26-Jul-18 21:39 33.865978 -118.774740 309 27541ft 461kts
26-Jul-18 21:40 33.951090 -118.891913 308 28492ft 468kts
26-Jul-18 21:41 34.036857 -119.010485 308 29495ft 470kts
26-Jul-18 21:42 34.122343 -119.129099 307 30734ft 467kts
26-Jul-18 21:43 34.207244 -119.247196 307 31797ft 466kts
26-Jul-18 21:44 34.292090 -119.365668 307 32790ft 466kts
26-Jul-18 21:45 34.376900 -119.484481 306 33665ft 466kts
26-Jul-18 21:46 34.465452 -119.599541 310 34465ft 468kts
26-Jul-18 21:47 34.556993 -119.711869 309 35191ft 467kts
26-Jul-18 21:48 34.647767 -119.824081 309 35771ft 467kts
26-Jul-18 21:49 34.738949 -119.937125 309 36030ft 466kts
26-Jul-18 21:50 34.829430 -120.049719 309 36034ft 466kts
26-Jul-18 21:51 34.920044 -120.162712 309 36008ft 464kts
26-Jul-18 21:52 35.010511 -120.275966 309 36024ft 471kts
26-Jul-18 21:53 35.102859 -120.389962 312 36061ft 466kts
26-Jul-18 21:54 35.198584 -120.496852 312 36050ft 466kts
26-Jul-18 21:55 35.293892 -120.604208 312 36040ft 465kts
26-Jul-18 21:56 35.389194 -120.711545 312 35990ft 465kts
26-Jul-18 21:57 35.484682 -120.818901 315 35982ft 467kts
26-Jul-18 21:58 35.588483 -120.915490 318 35985ft 470kts
26-Jul-18 21:59 35.692849 -121.012759 317 36038ft 470kts
26-Jul-18 22:00 35.796906 -121.109761 317 36065ft 470kts
26-Jul-18 22:01 35.901211 -121.207512 317 36068ft 470kts
26-Jul-18 22:02 36.005093 -121.305107 317 35242ft 467kts
26-Jul-18 22:03 36.111387 -121.398654 323 32470ft 471kts
26-Jul-18 22:04 36.222589 -121.484729 324 29594ft 471kts
26-Jul-18 22:05 36.333006 -121.571451 325 26839ft 465kts
26-Jul-18 22:06 36.440948 -121.656283 326 24185ft 454kts
26-Jul-18 22:07 36.543717 -121.737267 326 22664ft 406kts
26-Jul-18 22:08 36.635962 -121.810325 326 19772ft 390kts
26-Jul-18 22:09 36.728392 -121.874967 333 17974ft 376kts
26-Jul-18 22:10 36.824487 -121.918841 348 16245ft 368kts
26-Jul-18 22:11 36.923766 -121.944824 346 14388ft 358kts
26-Jul-18 22:12 37.017621 -121.978558 342 12575ft 344kts
26-Jul-18 22:13 37.108362 -122.014045 342 10737ft 333kts
26-Jul-18 22:14 37.189888 -122.045954 342 9600ft 292kts
26-Jul-18 22:15 37.266895 -122.076137 341 8060ft 282kts
26-Jul-18 22:16 37.338477 -122.104671 340 6771ft 256kts
26-Jul-18 22:17 37.400815 -122.128122 343 5827ft 225kts
26-Jul-18 22:18 37.460241 -122.148461 342 4411ft 217kts
26-Jul-18 22:19 37.517681 -122.168200 340 3107ft 212kts
26-Jul-18 22:20 37.552218 -122.216760 297 2526ft 182kts
26-Jul-18 22:21 37.573566 -122.267454 297 1675ft 145kts
26-Jul-18 22:22 37.592257 -122.311944 297 882ft 141kts
26-Jul-18 22:23 37.610566 -122.355492 297 155ft 140kts
26-Jul-18 22:24 37.621703 -122.382194 293 27ft 23kts
26-Jul-18 22:25 37.620018 -122.382904 114 27ft 12kts
26-Jul-18 22:26 37.618257 -122.382800 138 27ft 5kts
26-Jul-18 22:27 37.617982 -122.382229 118 27ft 0kts
26-Jul-18 22:28 37.617980 -122.382224 118 27ft 0kts
26-Jul-18 22:29 37.617980 -122.382224 118 27ft 0kts
26-Jul-18 22:30 37.617980 -122.382224 118 27ft 0kts

Navigation Log

Ident Type
Flight plan parsing failed, navigation log unavailable